Time;durP1;ratioP1;P1;durP2;ratioP2;P2;SDS_P1;SDS_P2;PMS_P1;PMS_P2;Temp;Humidity;BMP_temperature;BMP_pressure;BME280_temperature;BME280_humidity;BME280_pressure;Samples;Min_cycle;Max_cycle;Signal;HPM_P1;HPM_P2
2021/03/05 00:00:49;;;;;;;15.80;10.50;;;;;;;8.13;97.34;96366.66;5052694;28;20897;-58
2021/03/05 00:03:15;;;;;;;12.60;10.13;;;;;;;8.19;97.93;96371.03;5052025;28;20641;-59
2021/03/05 00:05:42;;;;;;;14.03;9.27;;;;;;;7.95;98.81;96372.56;5052065;28;20176;-55
2021/03/05 00:08:10;;;;;;;14.90;9.63;;;;;;;7.92;99.39;96367.75;5051188;28;20209;-58
2021/03/05 00:10:38;;;;;;;13.03;10.40;;;;;;;8.08;99.73;96371.72;5051412;28;20454;-61
2021/03/05 00:13:03;;;;;;;12.07;10.13;;;;;;;8.57;97.55;96386.75;5051804;28;20428;-56
2021/03/05 00:15:32;;;;;;;16.50;14.07;;;;;;;8.55;93.62;96388.78;5051785;28;20412;-59
2021/03/05 00:17:58;;;;;;;16.47;14.77;;;;;;;8.66;92.49;96388.09;5057399;28;20206;-57
2021/03/05 00:20:27;;;;;;;15.60;14.00;;;;;;;8.26;91.35;96395.41;5071878;28;20414;-59
2021/03/05 00:22:53;;;;;;;15.63;14.13;;;;;;;8.32;91.33;96392.72;5058935;28;20414;-60
2021/03/05 00:25:19;;;;;;;17.00;15.30;;;;;;;8.41;90.17;96397.72;5056037;28;20791;-58
2021/03/05 00:27:44;;;;;;;18.90;15.57;;;;;;;8.57;88.74;96394.59;5054215;28;20516;-58
2021/03/05 00:30:10;;;;;;;18.00;16.30;;;;;;;8.29;89.50;96394.97;5055102;28;20436;-55
2021/03/05 00:32:36;;;;;;;18.93;16.73;;;;;;;8.52;88.50;96395.22;5055922;28;20746;-60
2021/03/05 00:35:07;;;;;;;18.97;17.07;;;;;;;8.45;88.10;96402.31;5053621;28;20964;-59
2021/03/05 00:37:35;;;;;;;18.70;16.80;;;;;;;8.15;88.93;96403.88;5065758;28;20449;-56
2021/03/05 00:40:00;;;;;;;19.33;17.30;;;;;;;7.85;88.30;96402.78;5054845;28;20416;-58
2021/03/05 00:42:28;;;;;;;17.70;15.40;;;;;;;7.12;92.05;96411.84;5057741;28;20422;-55
2021/03/05 00:44:53;;;;;;;17.70;15.53;;;;;;;6.81;93.25;96406.41;5063115;28;20224;-58
2021/03/05 00:47:19;;;;;;;19.43;16.10;;;;;;;6.46;94.26;96418.84;5054121;28;20461;-58
2021/03/05 00:49:44;;;;;;;18.77;14.87;;;;;;;6.67;91.97;96423.06;5072666;28;20168;-56
2021/03/05 00:52:09;;;;;;;16.53;14.50;;;;;;;6.60;93.48;96427.47;5074541;28;20582;-55
2021/03/05 00:54:35;;;;;;;19.07;15.10;;;;;;;5.91;95.88;96432.09;5074721;28;20244;-58
2021/03/05 00:57:00;;;;;;;21.70;17.10;;;;;;;6.32;95.34;96434.66;5061533;28;20204;-58
2021/03/05 00:59:26;;;;;;;25.47;17.53;;;;;;;6.26;94.34;96425.81;5034206;28;20257;-57
2021/03/05 01:01:51;;;;;;;22.83;17.10;;;;;;;5.74;96.32;96430.81;5034225;28;20168;-55
2021/03/05 01:04:16;;;;;;;23.70;18.27;;;;;;;5.63;98.76;96441.78;5034283;28;20696;-55
2021/03/05 01:06:42;;;;;;;23.43;18.30;;;;;;;5.99;96.44;96431.94;5032775;28;20176;-55
2021/03/05 01:09:07;;;;;;;21.30;17.13;;;;;;;6.05;96.85;96434.56;5034970;28;20247;-55
2021/03/05 01:11:33;;;;;;;22.90;17.73;;;;;;;5.98;95.73;96441.56;5039764;28;20175;-59
2021/03/05 01:13:59;;;;;;;21.17;16.67;;;;;;;6.43;94.28;96440.13;5054267;28;20649;-58
2021/03/05 01:16:24;;;;;;;23.80;18.60;;;;;;;6.11;95.31;96440.81;5053535;28;20172;-56
2021/03/05 01:18:50;;;;;;;27.60;20.53;;;;;;;5.35;96.97;96451.41;5053868;28;20186;-59
2021/03/05 01:21:16;;;;;;;26.60;19.80;;;;;;;5.54;96.16;96459.38;5053988;28;20194;-55
2021/03/05 01:23:41;;;;;;;29.13;19.73;;;;;;;4.69;100.00;96457.94;5050493;28;20645;-59
2021/03/05 01:26:09;;;;;;;27.50;19.60;;;;;;;4.65;100.00;96467.09;5033655;28;20517;-58
2021/03/05 01:28:35;;;;;;;33.13;21.13;;;;;;;4.94;99.77;96465.16;5034051;28;20199;-55
2021/03/05 01:31:00;;;;;;;33.67;21.43;;;;;;;5.13;99.39;96445.47;5037317;28;20424;-58
2021/03/05 01:33:26;;;;;;;32.83;21.40;;;;;;;5.06;99.18;96457.63;5034799;28;20706;-58
2021/03/05 01:35:51;;;;;;;31.83;20.53;;;;;;;4.92;99.10;96459.34;5033692;28;20172;-65
2021/03/05 01:38:16;;;;;;;38.93;22.67;;;;;;;5.13;98.94;96453.28;5033688;28;20186;-57
2021/03/05 01:40:44;;;;;;;34.77;22.27;;;;;;;5.28;97.92;96463.59;5044678;28;20715;-56
2021/03/05 01:43:12;;;;;;;33.30;21.03;;;;;;;5.63;96.03;96466.06;5053471;28;20317;-58
2021/03/05 01:45:38;;;;;;;32.77;22.07;;;;;;;5.95;93.82;96454.19;5036969;28;20509;-58
2021/03/05 01:48:15;;;;;;;29.00;17.90;;;;;;;5.41;94.95;96467.13;5033164;28;20462;-57
2021/03/05 01:50:56;;;;;;;23.97;17.67;;;;;;;5.11;97.25;96469.09;5042664;28;20421;-57
2021/03/05 01:53:21;;;;;;;24.03;16.70;;;;;;;5.08;96.98;96463.47;5052442;28;20436;-58
2021/03/05 01:55:46;;;;;;;24.27;15.33;;;;;;;5.25;95.58;96462.97;5053601;28;20410;-55
2021/03/05 01:58:30;;;;;;;24.00;16.87;;;;;;;5.33;96.09;96461.25;5053184;28;20202;-57
2021/03/05 02:01:04;;;;;;;19.57;12.93;;;;;;;4.59;97.38;96471.25;5034928;28;20178;-60
2021/03/05 02:03:31;;;;;;;22.57;15.43;;;;;;;4.85;97.68;96470.69;5053113;28;20503;-58
2021/03/05 02:05:56;;;;;;;23.00;15.67;;;;;;;5.09;96.59;96470.28;5051426;28;20500;-60
2021/03/05 02:08:22;;;;;;;24.80;16.27;;;;;;;4.97;96.52;96469.19;5033306;28;21132;-55
2021/03/05 02:10:48;;;;;;;23.10;16.60;;;;;;;5.00;97.28;96472.22;5044296;28;20262;-58
2021/03/05 02:13:13;;;;;;;29.93;17.90;;;;;;;5.32;95.79;96476.06;5053170;28;20531;-59
2021/03/05 02:15:39;;;;;;;30.23;19.20;;;;;;;5.39;94.53;96465.69;5053267;28;20197;-57
2021/03/05 02:18:53;;;;;;;31.00;21.00;;;;;;;5.53;93.20;96469.97;5052553;28;20248;-56
2021/03/05 02:21:38;;;;;;;33.27;20.00;;;;;;;5.50;94.48;96472.97;5057174;28;20412;-58
2021/03/05 02:24:39;;;;;;;30.30;20.60;;;;;;;5.70;92.82;96472.09;5053266;28;20409;-55
2021/03/05 02:27:25;;;;;;;32.33;21.40;;;;;;;5.99;91.29;96477.09;5032746;28;20496;-58
2021/03/05 02:30:02;;;;;;;32.90;21.27;;;;;;;5.78;91.90;96473.75;5033167;28;20426;-56
2021/03/05 02:33:03;;;;;;;30.37;20.90;;;;;;;6.16;91.87;96467.91;5049913;28;20852;-55
2021/03/05 02:35:31;;;;;;;32.37;21.70;;;;;;;6.25;89.74;96474.56;5053221;28;20419;-58
2021/03/05 02:38:01;;;;;;;31.40;19.80;;;;;;;5.44;93.42;96490.16;5052265;28;21011;-58
2021/03/05 02:40:30;;;;;;;33.30;21.77;;;;;;;5.34;95.80;96481.91;5054828;28;20423;-58
2021/03/05 02:43:01;;;;;;;33.90;21.33;;;;;;;5.49;94.01;96487.00;5044590;28;20514;-55
2021/03/05 02:45:30;;;;;;;30.30;20.20;;;;;;;5.52;93.48;96491.81;5037230;28;20460;-55
2021/03/05 02:48:02;;;;;;;30.23;18.00;;;;;;;5.38;93.38;96485.72;5036497;28;20485;-55
2021/03/05 02:50:30;;;;;;;31.60;20.80;;;;;;;5.19;95.11;96500.22;5038902;28;20464;-56
2021/03/05 02:53:01;;;;;;;33.30;20.60;;;;;;;5.30;94.87;96506.72;5057216;28;21060;-57
2021/03/05 02:55:28;;;;;;;32.10;22.30;;;;;;;4.90;96.89;96499.56;5049772;28;20415;-58
2021/03/05 02:57:56;;;;;;;30.10;20.30;;;;;;;5.18;95.67;96495.19;5036425;28;20487;-55
2021/03/05 03:00:24;;;;;;;29.47;19.33;;;;;;;5.21;94.50;96498.22;5036746;28;20415;-58
2021/03/05 03:02:53;;;;;;;30.23;19.93;;;;;;;4.82;96.04;96512.72;5055725;28;20420;-58
2021/03/05 03:05:19;;;;;;;29.63;20.77;;;;;;;4.66;97.61;96500.72;5056410;28;20506;-58
2021/03/05 03:07:45;;;;;;;27.47;19.87;;;;;;;5.06;97.09;96509.72;5048859;28;20462;-56
2021/03/05 03:10:12;;;;;;;33.87;20.13;;;;;;;5.02;96.26;96513.66;5038328;28;20422;-59
2021/03/05 03:12:39;;;;;;;32.00;21.17;;;;;;;5.43;94.32;96517.22;5056367;28;20448;-58
2021/03/05 03:15:09;;;;;;;25.37;18.90;;;;;;;5.34;93.71;96518.38;5056385;28;20895;-55
2021/03/05 03:17:38;;;;;;;29.83;19.50;;;;;;;5.35;93.70;96514.75;5042214;28;20444;-58
2021/03/05 03:20:04;;;;;;;26.43;20.03;;;;;;;5.60;93.32;96522.97;5036601;28;20441;-58
2021/03/05 03:22:30;;;;;;;29.47;20.63;;;;;;;5.38;93.55;96524.78;5044265;28;20409;-55
2021/03/05 03:24:56;;;;;;;25.97;17.87;;;;;;;5.05;93.28;96521.13;5056101;28;20772;-56
2021/03/05 03:27:22;;;;;;;29.00;20.10;;;;;;;4.72;97.28;96530.41;5055763;28;20207;-56
2021/03/05 03:29:47;;;;;;;28.23;19.77;;;;;;;5.11;95.50;96528.16;5056015;28;20418;-55
2021/03/05 03:32:13;;;;;;;29.37;21.23;;;;;;;5.14;94.26;96522.59;5056215;28;20175;-57
2021/03/05 03:34:40;;;;;;;27.10;19.33;;;;;;;5.44;93.83;96536.25;5042117;28;20190;-56
2021/03/05 03:37:05;;;;;;;30.00;19.03;;;;;;;5.34;92.65;96534.00;5041251;28;20194;-58
2021/03/05 03:39:31;;;;;;;26.37;17.73;;;;;;;5.44;93.87;96539.66;5056014;28;20887;-58
2021/03/05 03:41:58;;;;;;;28.93;19.60;;;;;;;5.70;92.94;96539.88;5056004;28;20163;-58
2021/03/05 03:44:23;;;;;;;23.67;18.23;;;;;;;5.92;90.17;96551.06;5056010;28;20168;-57
2021/03/05 03:46:49;;;;;;;24.33;18.03;;;;;;;5.56;90.36;96550.38;5054869;28;20764;-58
2021/03/05 03:49:37;;;;;;;25.43;18.17;;;;;;;5.79;91.91;96549.16;5054804;28;20211;-58
2021/03/05 03:52:13;;;;;;;27.20;19.53;;;;;;;6.24;90.43;96547.81;5035696;28;20496;-58
2021/03/05 03:54:39;;;;;;;23.73;17.40;;;;;;;6.23;89.69;96551.44;5036006;28;20403;-57
2021/03/05 03:57:08;;;;;;;25.77;18.00;;;;;;;6.18;88.39;96552.00;5035420;28;20767;-58
2021/03/05 03:59:34;;;;;;;24.33;16.80;;;;;;;5.86;90.52;96557.84;5035849;28;20222;-56
2021/03/05 04:02:01;;;;;;;18.47;15.13;;;;;;;5.96;88.25;96558.28;5036603;28;20419;-57
2021/03/05 04:04:30;;;;;;;18.30;13.53;;;;;;;5.83;89.38;96550.41;5037590;28;20419;-56
2021/03/05 04:06:59;;;;;;;16.50;13.50;;;;;;;6.15;88.64;96554.19;5054990;28;20445;-55
2021/03/05 04:09:25;;;;;;;19.30;14.97;;;;;;;6.21;87.69;96550.81;5055392;28;20778;-58
2021/03/05 04:11:53;;;;;;;17.13;13.93;;;;;;;5.77;87.86;96558.97;5055505;28;20410;-56
2021/03/05 04:14:20;;;;;;;16.23;13.40;;;;;;;5.48;89.89;96560.94;5055306;28;20813;-59
2021/03/05 04:16:45;;;;;;;16.10;13.57;;;;;;;5.64;89.64;96560.66;5054851;28;20770;-59
2021/03/05 04:19:12;;;;;;;15.17;12.57;;;;;;;5.62;90.07;96563.44;5038243;28;20438;-58
2021/03/05 04:21:38;;;;;;;16.00;12.87;;;;;;;5.76;89.51;96559.94;5055138;28;20171;-55
2021/03/05 04:24:04;;;;;;;16.80;13.83;;;;;;;5.95;87.95;96564.50;5055030;28;20508;-56
2021/03/05 04:26:30;;;;;;;16.37;13.00;;;;;;;5.81;88.97;96564.59;5054872;28;20164;-57
2021/03/05 04:28:55;;;;;;;14.60;12.60;;;;;;;5.82;88.68;96568.78;5054180;28;20480;-55
2021/03/05 04:31:21;;;;;;;13.87;12.27;;;;;;;5.98;88.34;96564.13;5053716;28;20533;-58
2021/03/05 04:33:46;;;;;;;14.40;12.77;;;;;;;6.06;87.56;96566.59;5054770;28;20179;-55
2021/03/05 04:36:12;;;;;;;16.57;13.73;;;;;;;6.05;87.16;96564.19;5054325;28;20316;-58
2021/03/05 04:38:37;;;;;;;13.67;11.90;;;;;;;6.09;87.07;96570.59;5054494;28;20274;-55
2021/03/05 04:41:02;;;;;;;14.60;12.40;;;;;;;6.14;86.97;96563.81;5048311;28;20184;-56
2021/03/05 04:43:28;;;;;;;12.80;11.27;;;;;;;6.15;85.39;96565.44;5034859;28;20176;-54
2021/03/05 04:45:53;;;;;;;13.10;11.67;;;;;;;6.34;85.96;96576.16;5034587;28;20251;-55
2021/03/05 04:48:19;;;;;;;14.13;11.80;;;;;;;6.23;84.29;96574.91;5034593;28;20211;-58
2021/03/05 04:50:44;;;;;;;13.73;11.47;;;;;;;6.36;85.89;96569.72;5034646;28;20168;-58
2021/03/05 04:53:10;;;;;;;14.27;12.27;;;;;;;6.39;85.38;96566.75;5036505;28;20661;-58
2021/03/05 04:55:35;;;;;;;14.50;12.77;;;;;;;6.42;85.12;96568.97;5040307;28;20164;-57
2021/03/05 04:58:01;;;;;;;15.13;12.33;;;;;;;5.93;85.84;96573.50;5054075;28;20194;-55
2021/03/05 05:00:26;;;;;;;15.77;13.40;;;;;;;6.17;86.10;96588.72;5054495;28;20174;-55
2021/03/05 05:02:52;;;;;;;15.53;11.30;;;;;;;6.03;86.87;96584.44;5051952;28;20233;-58
2021/03/05 05:05:17;;;;;;;13.60;12.00;;;;;;;6.01;88.00;96581.19;5054224;28;20522;-58
2021/03/05 05:07:43;;;;;;;14.10;12.30;;;;;;;6.21;86.83;96577.69;5053846;28;20356;-58
2021/03/05 05:10:09;;;;;;;14.80;12.03;;;;;;;6.23;86.60;96580.13;5054385;28;20232;-57
2021/03/05 05:12:35;;;;;;;14.50;12.73;;;;;;;6.33;86.64;96587.56;5053865;28;20163;-58
2021/03/05 05:15:00;;;;;;;16.30;13.20;;;;;;;6.36;86.63;96587.22;5054197;28;20402;-55
2021/03/05 05:17:26;;;;;;;15.87;13.23;;;;;;;6.46;85.76;96590.25;5045386;28;20188;-55
2021/03/05 05:19:51;;;;;;;16.60;12.97;;;;;;;6.29;85.97;96589.78;5034267;28;20173;-55
2021/03/05 05:22:17;;;;;;;14.70;11.63;;;;;;;6.41;85.46;96601.28;5034225;28;20253;-55
2021/03/05 05:24:42;;;;;;;15.87;12.90;;;;;;;5.94;87.59;96596.78;5034186;28;20183;-58
2021/03/05 05:27:07;;;;;;;14.07;12.10;;;;;;;6.20;86.40;96604.78;5042797;28;20635;-55
2021/03/05 05:29:33;;;;;;;15.23;13.00;;;;;;;6.34;86.46;96604.84;5053591;28;20211;-58
2021/03/05 05:31:58;;;;;;;14.00;11.97;;;;;;;6.11;85.25;96600.72;5053982;28;20241;-58
2021/03/05 05:34:24;;;;;;;13.70;10.70;;;;;;;6.24;85.58;96608.63;5052882;28;20634;-55
2021/03/05 05:36:49;;;;;;;18.80;11.50;;;;;;;5.97;86.93;96600.81;5053024;28;20179;-55
2021/03/05 05:39:15;;;;;;;13.90;11.53;;;;;;;6.34;85.69;96604.84;5053770;28;20187;-56
2021/03/05 05:41:41;;;;;;;14.00;11.63;;;;;;;6.31;85.09;96608.66;5054088;28;20178;-58
2021/03/05 05:44:07;;;;;;;15.23;12.53;;;;;;;6.34;84.90;96607.47;5053510;28;20532;-58
2021/03/05 05:46:33;;;;;;;15.33;12.33;;;;;;;6.28;84.62;96616.88;5033296;28;20281;-58
2021/03/05 05:48:59;;;;;;;15.17;12.37;;;;;;;6.34;85.25;96615.28;5033718;28;20462;-55
2021/03/05 05:51:29;;;;;;;15.23;12.00;;;;;;;6.36;85.20;96619.31;5033856;28;20454;-58
2021/03/05 05:53:59;;;;;;;14.43;11.83;;;;;;;5.95;85.27;96614.06;5045162;28;20179;-55
2021/03/05 05:56:26;;;;;;;14.33;11.03;;;;;;;6.00;85.95;96622.09;5041977;28;20477;-55
2021/03/05 05:58:51;;;;;;;17.30;12.80;;;;;;;6.09;86.66;96628.78;5033288;28;20929;-55
2021/03/05 06:01:17;;;;;;;16.30;12.10;;;;;;;6.20;85.40;96623.03;5033561;28;20506;-58
2021/03/05 06:03:42;;;;;;;17.43;11.60;;;;;;;6.29;84.99;96628.13;5033600;28;20626;-58
2021/03/05 06:06:11;;;;;;;16.60;11.17;;;;;;;6.38;84.66;96627.75;5052024;28;20561;-56
2021/03/05 06:08:36;;;;;;;16.00;12.30;;;;;;;6.35;84.89;96632.53;5053228;28;20207;-56
2021/03/05 06:11:01;;;;;;;14.60;11.63;;;;;;;6.38;84.12;96640.78;5053550;28;20412;-58
2021/03/05 06:13:27;;;;;;;13.70;11.53;;;;;;;6.41;84.36;96634.41;5051547;28;20178;-61
2021/03/05 06:16:18;;;;;;;16.83;12.53;;;;;;;6.37;84.92;96641.00;5032323;28;20210;-56
2021/03/05 06:18:45;;;;;;;17.47;11.90;;;;;;;6.57;83.03;96644.50;5033233;28;20423;-55
2021/03/05 06:21:11;;;;;;;15.70;13.07;;;;;;;6.44;83.45;96647.06;5037967;28;20425;-56
2021/03/05 06:23:57;;;;;;;16.33;11.40;;;;;;;6.22;84.33;96649.75;5053152;28;20406;-58
2021/03/05 06:26:22;;;;;;;19.17;12.77;;;;;;;6.34;83.65;96649.22;5050856;28;20453;-59
2021/03/05 06:29:06;;;;;;;19.10;13.00;;;;;;;6.42;83.71;96664.69;5053171;28;21006;-55
2021/03/05 06:31:33;;;;;;;19.47;13.80;;;;;;;6.37;83.18;96667.09;5052970;28;20171;-57
2021/03/05 06:34:01;;;;;;;17.73;13.00;;;;;;;6.20;83.84;96666.56;5053292;28;20421;-55
2021/03/05 06:36:27;;;;;;;15.87;11.30;;;;;;;6.28;84.72;96669.03;5052381;28;20457;-58
2021/03/05 06:38:52;;;;;;;16.67;11.73;;;;;;;5.98;85.06;96670.22;5051847;28;20429;-58
2021/03/05 06:41:30;;;;;;;14.87;12.20;;;;;;;6.03;84.90;96681.69;5046058;28;20423;-59
2021/03/05 06:44:01;;;;;;;16.87;11.33;;;;;;;6.07;85.30;96676.91;5033917;28;20233;-55
2021/03/05 06:46:41;;;;;;;16.10;11.47;;;;;;;6.15;84.23;96687.22;5052657;28;20421;-55
2021/03/05 06:49:09;;;;;;;17.23;12.20;;;;;;;6.02;85.74;96687.09;5047994;28;20546;-58
2021/03/05 06:51:35;;;;;;;14.70;11.93;;;;;;;6.17;84.62;96687.81;5033127;28;20411;-58
2021/03/05 06:54:13;;;;;;;18.70;13.70;;;;;;;6.33;83.54;96694.56;5033122;28;20425;-58
2021/03/05 06:56:41;;;;;;;15.73;11.37;;;;;;;6.56;82.29;96692.50;5044136;28;20171;-55
2021/03/05 06:59:13;;;;;;;16.10;11.90;;;;;;;6.19;82.50;96698.88;5052831;28;20441;-55
2021/03/05 07:01:50;;;;;;;15.30;12.20;;;;;;;6.36;83.67;96700.19;5052762;28;20410;-58
2021/03/05 07:04:19;;;;;;;15.73;11.63;;;;;;;6.07;82.97;96705.59;5052934;28;20412;-55
2021/03/05 07:06:45;;;;;;;15.67;11.53;;;;;;;5.95;85.29;96709.72;5052453;28;20434;-56
2021/03/05 07:09:25;;;;;;;16.43;11.00;;;;;;;6.04;85.48;96714.63;5052550;28;20487;-55
2021/03/05 07:11:52;;;;;;;17.03;11.47;;;;;;;6.32;84.21;96716.44;5041537;28;20184;-58
2021/03/05 07:14:18;;;;;;;14.90;11.43;;;;;;;6.24;83.99;96715.59;5040388;28;20950;-58
2021/03/05 07:16:46;;;;;;;17.67;11.30;;;;;;;6.21;84.70;96715.16;5052368;28;20488;-55
2021/03/05 07:19:16;;;;;;;19.63;14.30;;;;;;;6.16;84.63;96720.94;5052408;28;20584;-56
2021/03/05 07:21:45;;;;;;;16.07;12.47;;;;;;;6.32;85.09;96719.03;5052798;28;20406;-56
2021/03/05 07:24:13;;;;;;;15.97;11.33;;;;;;;6.32;83.90;96729.47;5051883;28;20472;-55
2021/03/05 07:26:43;;;;;;;15.47;12.23;;;;;;;6.42;84.48;96722.09;5052882;28;20418;-58
2021/03/05 07:29:15;;;;;;;18.17;13.10;;;;;;;6.42;83.28;96733.38;5056244;28;20453;-58
2021/03/05 07:31:42;;;;;;;17.87;12.30;;;;;;;6.44;83.23;96733.16;5043351;28;20449;-57
2021/03/05 07:34:10;;;;;;;16.87;12.87;;;;;;;6.39;83.94;96738.16;5043636;28;20430;-59
2021/03/05 07:36:40;;;;;;;17.83;12.87;;;;;;;6.62;83.72;96742.13;5055865;28;20407;-59
2021/03/05 07:39:06;;;;;;;22.83;14.10;;;;;;;6.58;83.92;96748.72;5054170;28;20442;-59
2021/03/05 07:41:33;;;;;;;18.87;12.40;;;;;;;6.61;82.78;96748.38;5056060;28;20424;-58
2021/03/05 07:43:59;;;;;;;17.97;12.37;;;;;;;6.68;82.64;96744.00;5055721;28;20422;-56
2021/03/05 07:46:26;;;;;;;21.87;12.50;;;;;;;6.58;81.68;96755.75;5055623;28;20412;-56
2021/03/05 07:48:52;;;;;;;16.40;12.20;;;;;;;6.49;82.38;96755.09;5055712;28;20494;-59
2021/03/05 07:51:20;;;;;;;17.60;11.97;;;;;;;6.56;81.58;96758.53;5055661;28;20445;-58
2021/03/05 07:53:53;;;;;;;15.40;10.47;;;;;;;6.65;81.99;96767.06;5054047;28;20303;-59
2021/03/05 07:56:38;;;;;;;15.60;12.20;;;;;;;6.39;83.09;96766.84;5036458;28;20426;-59
2021/03/05 07:59:03;;;;;;;16.33;12.60;;;;;;;6.46;82.82;96758.09;5035773;28;20822;-58
2021/03/05 08:01:50;;;;;;;15.67;11.87;;;;;;;6.42;83.40;96771.69;5035637;28;20412;-55
2021/03/05 08:04:16;;;;;;;17.27;11.97;;;;;;;6.64;82.02;96770.66;5035807;28;20175;-58
2021/03/05 08:06:41;;;;;;;16.23;11.80;;;;;;;6.67;81.87;96778.09;5035419;28;20411;-58
2021/03/05 08:09:07;;;;;;;18.63;12.70;;;;;;;6.60;81.80;96767.63;5045090;28;20251;-58
2021/03/05 08:11:36;;;;;;;17.37;11.53;;;;;;;6.73;82.23;96782.56;5066434;28;21742;-60
2021/03/05 08:14:22;;;;;;;17.00;11.60;;;;;;;6.88;81.75;96780.66;5055377;28;20420;-58
2021/03/05 08:16:52;;;;;;;16.90;12.10;;;;;;;6.78;81.17;96774.94;5052293;28;20422;-54
2021/03/05 08:19:17;;;;;;;19.90;12.90;;;;;;;6.93;81.17;96788.72;5055275;28;20422;-55
2021/03/05 08:21:57;;;;;;;16.47;12.73;;;;;;;6.99;81.42;96798.41;5055336;28;20764;-59
2021/03/05 08:24:27;;;;;;;18.07;13.10;;;;;;;7.13;80.72;96795.69;5051786;28;20163;-58
2021/03/05 08:27:09;;;;;;;14.03;11.00;;;;;;;7.12;80.76;96793.25;5049255;28;20418;-59
2021/03/05 08:29:47;;;;;;;16.63;11.43;;;;;;;6.90;81.92;96794.34;5050126;28;20430;-57
2021/03/05 08:32:30;;;;;;;17.97;11.90;;;;;;;6.93;82.16;96799.97;5049730;28;20846;-63
2021/03/05 08:34:57;;;;;;;17.07;11.13;;;;;;;6.93;81.66;96802.59;5050967;28;20784;-57
2021/03/05 08:37:33;;;;;;;20.50;12.80;;;;;;;6.92;81.12;96800.19;5050346;28;20488;-57
2021/03/05 08:40:10;;;;;;;17.50;11.90;;;;;;;6.91;80.71;96801.97;5040898;28;20802;-57
2021/03/05 08:42:49;;;;;;;14.47;11.23;;;;;;;7.05;81.42;96798.44;5031287;28;20921;-58
2021/03/05 08:45:29;;;;;;;12.40;10.07;;;;;;;6.99;81.42;96808.84;5031386;28;20411;-58
2021/03/05 08:48:02;;;;;;;14.90;10.37;;;;;;;6.89;81.50;96813.59;5047656;28;20987;-58
2021/03/05 08:50:31;;;;;;;13.93;10.73;;;;;;;6.83;80.71;96806.53;5050556;28;20425;-62
2021/03/05 08:52:58;;;;;;;15.23;11.40;;;;;;;7.02;81.46;96811.06;5049366;28;20417;-61
2021/03/05 08:55:23;;;;;;;14.37;10.60;;;;;;;7.15;81.24;96814.59;5049346;28;20439;-59
2021/03/05 08:57:52;;;;;;;15.83;9.77;;;;;;;6.79;82.00;96818.38;5048524;28;20434;-59
2021/03/05 09:00:20;;;;;;;13.60;10.17;;;;;;;6.77;81.39;96829.00;5030732;28;20256;-57
2021/03/05 09:02:47;;;;;;;13.60;10.80;;;;;;;6.77;82.41;96828.19;5031122;28;20411;-58
2021/03/05 09:05:23;;;;;;;16.60;11.67;;;;;;;6.77;81.61;96826.38;5031018;28;20418;-62
2021/03/05 09:07:51;;;;;;;13.60;9.33;;;;;;;6.68;82.65;96829.31;5036803;28;20458;-59
2021/03/05 09:10:18;;;;;;;12.40;10.50;;;;;;;6.66;82.11;96828.69;5050076;28;20452;-58
2021/03/05 09:12:54;;;;;;;14.27;9.63;;;;;;;6.92;81.38;96829.69;5050685;28;20442;-61
2021/03/05 09:15:23;;;;;;;13.97;10.30;;;;;;;7.11;79.74;96830.81;5050863;28;20453;-59
2021/03/05 09:17:49;;;;;;;13.70;10.37;;;;;;;7.15;80.69;96835.47;5050247;28;20422;-61
2021/03/05 09:20:14;;;;;;;17.40;11.17;;;;;;;7.16;79.50;96829.25;5050551;28;20446;-59
2021/03/05 09:22:39;;;;;;;14.20;10.57;;;;;;;7.13;79.12;96836.66;5033122;28;20179;-59
2021/03/05 09:25:06;;;;;;;13.97;10.43;;;;;;;7.23;79.81;96835.31;5039327;28;20206;-60
2021/03/05 09:27:40;;;;;;;13.87;10.43;;;;;;;7.06;79.82;96836.63;5049916;28;20265;-59
2021/03/05 09:30:15;;;;;;;14.63;9.97;;;;;;;6.87;79.76;96836.47;5050371;28;20405;-60
2021/03/05 09:32:50;;;;;;;17.20;9.63;;;;;;;6.82;81.04;96844.91;5050177;28;20411;-57
2021/03/05 09:35:30;;;;;;;10.33;9.23;;;;;;;6.80;81.48;96841.66;5049286;28;20448;-59
2021/03/05 09:37:57;;;;;;;16.43;10.50;;;;;;;7.12;79.34;96843.69;5030013;28;20434;-59
2021/03/05 09:40:25;;;;;;;15.00;9.93;;;;;;;7.20;79.83;96842.72;5039964;28;20503;-63
2021/03/05 09:42:57;;;;;;;13.17;9.60;;;;;;;7.26;79.34;96844.59;5030409;28;20411;-58
2021/03/05 09:45:36;;;;;;;15.20;10.73;;;;;;;7.45;79.57;96845.66;5030303;28;20973;-59
2021/03/05 09:48:03;;;;;;;12.97;9.60;;;;;;;7.43;78.48;96847.69;5027803;28;20458;-59
2021/03/05 09:50:28;;;;;;;14.00;9.83;;;;;;;7.40;78.53;96848.06;5034697;28;20437;-57
2021/03/05 09:52:54;;;;;;;12.47;9.80;;;;;;;7.59;78.45;96857.81;5033857;28;20890;-56
2021/03/05 09:55:30;;;;;;;12.63;9.10;;;;;;;7.65;78.74;96857.84;5048470;28;20647;-58
2021/03/05 09:58:09;;;;;;;13.50;9.50;;;;;;;7.39;76.74;96864.75;5053105;28;20649;-56
2021/03/05 10:00:34;;;;;;;12.70;9.97;;;;;;;7.49;77.21;96873.03;5053661;28;20396;-58
2021/03/05 10:03:06;;;;;;;12.07;9.47;;;;;;;7.53;77.58;96864.63;5053447;28;20416;-58
2021/03/05 10:05:33;;;;;;;12.13;9.27;;;;;;;7.62;77.24;96866.06;5052686;28;20172;-57
2021/03/05 10:07:58;;;;;;;12.00;9.43;;;;;;;7.57;77.93;96868.47;5053038;28;20450;-58
2021/03/05 10:10:24;;;;;;;13.37;10.40;;;;;;;7.54;78.26;96875.88;5053093;28;20472;-58
2021/03/05 10:12:55;;;;;;;12.17;8.67;;;;;;;7.74;76.17;96874.16;5053411;28;20233;-57
2021/03/05 10:15:21;;;;;;;13.33;9.67;;;;;;;7.63;76.47;96880.75;5053780;28;20183;-55
2021/03/05 10:17:46;;;;;;;12.50;9.10;;;;;;;7.41;77.60;96881.84;5047207;28;20432;-55
2021/03/05 10:20:13;;;;;;;13.43;9.30;;;;;;;7.64;76.59;96874.53;5033497;28;20176;-58
2021/03/05 10:22:38;;;;;;;11.00;8.87;;;;;;;7.70;74.70;96873.75;5033408;28;20214;-58
2021/03/05 10:25:05;;;;;;;13.27;9.20;;;;;;;7.69;74.56;96881.78;5046035;28;20419;-58
2021/03/05 10:27:41;;;;;;;13.50;9.57;;;;;;;7.78;75.41;96885.84;5052755;28;20193;-58
2021/03/05 10:30:07;;;;;;;13.00;9.10;;;;;;;7.65;75.79;96889.22;5053113;28;20493;-55
2021/03/05 10:32:37;;;;;;;12.30;9.87;;;;;;;7.62;74.71;96887.00;5052410;28;20415;-56
2021/03/05 10:35:09;;;;;;;11.80;9.10;;;;;;;7.35;75.58;96893.09;5053258;28;20391;-59
2021/03/05 10:37:36;;;;;;;12.30;8.87;;;;;;;7.60;76.07;96891.59;5052666;28;20457;-56
2021/03/05 10:40:04;;;;;;;13.07;9.40;;;;;;;7.77;75.80;96895.50;5049458;28;20427;-58
2021/03/05 10:42:29;;;;;;;14.17;9.43;;;;;;;7.64;76.14;96890.22;5052774;28;20416;-58
2021/03/05 10:44:55;;;;;;;11.37;9.07;;;;;;;7.86;74.49;96902.16;5053136;28;20432;-55
2021/03/05 10:47:22;;;;;;;12.70;10.13;;;;;;;7.66;74.41;96903.09;5050451;28;20281;-57
2021/03/05 10:49:48;;;;;;;13.37;10.27;;;;;;;7.85;74.45;96899.75;5052756;28;20417;-56
2021/03/05 10:52:16;;;;;;;12.90;8.40;;;;;;;7.82;72.76;96906.19;5052840;28;20414;-56
2021/03/05 10:54:43;;;;;;;12.93;9.20;;;;;;;7.68;74.21;96909.72;5052502;28;20421;-56
2021/03/05 10:57:13;;;;;;;12.10;9.50;;;;;;;7.71;74.82;96913.78;5052428;28;20421;-58
2021/03/05 10:59:39;;;;;;;12.93;8.77;;;;;;;7.80;74.56;96921.28;5052887;28;20482;-56
2021/03/05 11:02:05;;;;;;;12.03;9.37;;;;;;;7.60;74.34;96911.72;5044590;28;20511;-58
2021/03/05 11:04:30;;;;;;;13.00;8.47;;;;;;;7.71;74.49;96919.00;5056776;28;20165;-58
2021/03/05 11:06:56;;;;;;;15.20;10.03;;;;;;;7.74;73.04;96916.00;5056382;28;20164;-57
2021/03/05 11:09:25;;;;;;;13.13;9.97;;;;;;;7.84;73.43;96924.31;5056141;28;20200;-59
2021/03/05 11:11:50;;;;;;;13.00;9.67;;;;;;;7.79;74.27;96922.25;5056635;28;20255;-65
2021/03/05 11:14:16;;;;;;;13.60;9.83;;;;;;;7.80;74.86;96921.28;5051679;28;20517;-62
2021/03/05 11:16:42;;;;;;;16.00;10.00;;;;;;;7.71;74.76;96922.44;5051427;28;20197;-62
2021/03/05 11:19:07;;;;;;;12.40;9.37;;;;;;;7.82;73.61;96921.09;5053025;28;20990;-60
2021/03/05 11:21:33;;;;;;;18.07;10.70;;;;;;;7.90;73.66;96929.56;5052965;28;20157;-62
2021/03/05 11:24:00;;;;;;;13.90;9.23;;;;;;;7.69;71.80;96927.06;5052653;28;20794;-60
2021/03/05 11:26:26;;;;;;;12.00;9.80;;;;;;;7.83;72.89;96936.56;5052006;28;20171;-61
2021/03/05 11:28:54;;;;;;;10.03;8.40;;;;;;;7.68;71.73;96938.50;5052264;28;20822;-66
2021/03/05 11:31:20;;;;;;;17.10;9.30;;;;;;;7.31;73.20;96933.66;5041082;28;20175;-62
2021/03/05 11:33:46;;;;;;;12.03;9.63;;;;;;;7.25;72.77;96939.63;5032068;28;20433;-67